sensor_id;sensor_type;location;lat;lon;timestamp;temperature;humidity
20735;DHT22;10528;52.124;5.196;2022-08-19T00:00:37;18.60;99.90
20735;DHT22;10528;52.124;5.196;2022-08-19T00:03:05;18.50;99.90
20735;DHT22;10528;52.124;5.196;2022-08-19T00:05:33;18.40;99.90
20735;DHT22;10528;52.124;5.196;2022-08-19T00:08:00;18.50;99.90
20735;DHT22;10528;52.124;5.196;2022-08-19T00:10:28;18.40;99.90
20735;DHT22;10528;52.124;5.196;2022-08-19T00:12:54;18.40;99.90
20735;DHT22;10528;52.124;5.196;2022-08-19T00:15:22;18.40;99.90
20735;DHT22;10528;52.124;5.196;2022-08-19T00:17:49;18.40;99.90
20735;DHT22;10528;52.124;5.196;2022-08-19T00:20:18;18.40;99.90
20735;DHT22;10528;52.124;5.196;2022-08-19T00:22:47;18.40;99.90
20735;DHT22;10528;52.124;5.196;2022-08-19T00:25:15;18.40;99.90
20735;DHT22;10528;52.124;5.196;2022-08-19T00:27:43;18.20;99.90
20735;DHT22;10528;52.124;5.196;2022-08-19T00:30:10;18.30;99.90
20735;DHT22;10528;52.124;5.196;2022-08-19T00:32:39;18.30;99.90
20735;DHT22;10528;52.124;5.196;2022-08-19T00:35:06;18.30;99.90
20735;DHT22;10528;52.124;5.196;2022-08-19T00:37:33;18.30;99.90
20735;DHT22;10528;52.124;5.196;2022-08-19T00:40:04;18.20;99.90
20735;DHT22;10528;52.124;5.196;2022-08-19T00:42:32;18.20;99.90
20735;DHT22;10528;52.124;5.196;2022-08-19T00:44:59;18.20;99.90
20735;DHT22;10528;52.124;5.196;2022-08-19T00:47:26;18.10;99.90
20735;DHT22;10528;52.124;5.196;2022-08-19T00:49:56;18.10;99.90
20735;DHT22;10528;52.124;5.196;2022-08-19T00:52:35;18.10;99.90
20735;DHT22;10528;52.124;5.196;2022-08-19T00:55:07;18.10;99.90
20735;DHT22;10528;52.124;5.196;2022-08-19T00:57:41;18.10;99.90
20735;DHT22;10528;52.124;5.196;2022-08-19T01:00:14;18.10;99.90
20735;DHT22;10528;52.124;5.196;2022-08-19T01:02:45;18.00;99.90
20735;DHT22;10528;52.124;5.196;2022-08-19T01:05:16;18.00;99.90
20735;DHT22;10528;52.124;5.196;2022-08-19T01:07:47;18.00;99.90
20735;DHT22;10528;52.124;5.196;2022-08-19T01:10:20;17.90;99.90
20735;DHT22;10528;52.124;5.196;2022-08-19T01:12:51;17.90;99.90
20735;DHT22;10528;52.124;5.196;2022-08-19T01:15:27;17.90;99.90
20735;DHT22;10528;52.124;5.196;2022-08-19T01:18:00;17.90;99.90
20735;DHT22;10528;52.124;5.196;2022-08-19T01:20:31;17.80;99.90
20735;DHT22;10528;52.124;5.196;2022-08-19T01:23:00;17.80;99.90
20735;DHT22;10528;52.124;5.196;2022-08-19T01:25:39;17.70;99.90
20735;DHT22;10528;52.124;5.196;2022-08-19T01:28:16;17.80;99.90
20735;DHT22;10528;52.124;5.196;2022-08-19T01:30:59;17.70;99.90
20735;DHT22;10528;52.124;5.196;2022-08-19T01:33:25;17.80;99.90
20735;DHT22;10528;52.124;5.196;2022-08-19T01:35:52;17.70;99.90
20735;DHT22;10528;52.124;5.196;2022-08-19T01:38:25;17.70;99.90
20735;DHT22;10528;52.124;5.196;2022-08-19T01:40:53;17.80;99.90
20735;DHT22;10528;52.124;5.196;2022-08-19T01:43:20;17.70;99.90
20735;DHT22;10528;52.124;5.196;2022-08-19T01:45:47;17.70;99.90
20735;DHT22;10528;52.124;5.196;2022-08-19T01:48:15;17.70;99.90
20735;DHT22;10528;52.124;5.196;2022-08-19T01:50:42;17.60;99.90
20735;DHT22;10528;52.124;5.196;2022-08-19T01:53:11;17.70;99.90
20735;DHT22;10528;52.124;5.196;2022-08-19T01:55:41;17.60;99.90
20735;DHT22;10528;52.124;5.196;2022-08-19T01:58:16;17.50;99.90
20735;DHT22;10528;52.124;5.196;2022-08-19T02:00:47;17.60;99.90
20735;DHT22;10528;52.124;5.196;2022-08-19T02:03:14;17.60;99.90
20735;DHT22;10528;52.124;5.196;2022-08-19T02:05:43;17.50;99.90
20735;DHT22;10528;52.124;5.196;2022-08-19T02:08:12;17.50;99.90
20735;DHT22;10528;52.124;5.196;2022-08-19T02:10:42;17.50;99.90
20735;DHT22;10528;52.124;5.196;2022-08-19T02:13:11;17.50;99.90
20735;DHT22;10528;52.124;5.196;2022-08-19T02:15:39;17.50;99.90
20735;DHT22;10528;52.124;5.196;2022-08-19T02:18:07;17.50;99.90
20735;DHT22;10528;52.124;5.196;2022-08-19T02:20:35;17.50;99.90
20735;DHT22;10528;52.124;5.196;2022-08-19T02:23:03;17.50;99.90
20735;DHT22;10528;52.124;5.196;2022-08-19T02:25:39;17.50;99.90
20735;DHT22;10528;52.124;5.196;2022-08-19T02:28:07;17.40;99.90
20735;DHT22;10528;52.124;5.196;2022-08-19T02:30:33;17.40;99.90
20735;DHT22;10528;52.124;5.196;2022-08-19T02:33:00;17.40;99.90
20735;DHT22;10528;52.124;5.196;2022-08-19T02:35:27;17.40;99.90
20735;DHT22;10528;52.124;5.196;2022-08-19T02:37:54;17.40;99.90
20735;DHT22;10528;52.124;5.196;2022-08-19T02:40:39;17.40;99.90
20735;DHT22;10528;52.124;5.196;2022-08-19T02:43:08;17.40;99.90
20735;DHT22;10528;52.124;5.196;2022-08-19T02:45:36;17.40;99.90
20735;DHT22;10528;52.124;5.196;2022-08-19T02:48:07;17.30;99.90
20735;DHT22;10528;52.124;5.196;2022-08-19T02:50:48;17.30;99.90
20735;DHT22;10528;52.124;5.196;2022-08-19T02:53:23;17.30;99.90
20735;DHT22;10528;52.124;5.196;2022-08-19T02:55:51;17.20;99.90
20735;DHT22;10528;52.124;5.196;2022-08-19T02:58:18;17.30;99.90
20735;DHT22;10528;52.124;5.196;2022-08-19T03:00:54;17.30;99.90
20735;DHT22;10528;52.124;5.196;2022-08-19T03:03:22;17.20;99.90
20735;DHT22;10528;52.124;5.196;2022-08-19T03:05:50;17.20;99.90
20735;DHT22;10528;52.124;5.196;2022-08-19T03:08:23;17.20;99.90
20735;DHT22;10528;52.124;5.196;2022-08-19T03:10:51;17.20;99.90
20735;DHT22;10528;52.124;5.196;2022-08-19T03:13:19;17.10;99.90
20735;DHT22;10528;52.124;5.196;2022-08-19T03:15:47;17.10;99.90
20735;DHT22;10528;52.124;5.196;2022-08-19T03:18:15;17.10;99.90
20735;DHT22;10528;52.124;5.196;2022-08-19T03:20:53;17.10;99.90
20735;DHT22;10528;52.124;5.196;2022-08-19T03:23:21;17.10;99.90
20735;DHT22;10528;52.124;5.196;2022-08-19T03:25:50;17.10;99.90
20735;DHT22;10528;52.124;5.196;2022-08-19T03:28:39;17.10;99.90
20735;DHT22;10528;52.124;5.196;2022-08-19T03:31:09;17.10;99.90
20735;DHT22;10528;52.124;5.196;2022-08-19T03:33:58;17.10;99.90
20735;DHT22;10528;52.124;5.196;2022-08-19T03:36:26;17.00;99.90
20735;DHT22;10528;52.124;5.196;2022-08-19T03:38:59;17.00;99.90
20735;DHT22;10528;52.124;5.196;2022-08-19T03:41:33;17.00;99.90
20735;DHT22;10528;52.124;5.196;2022-08-19T03:44:15;16.90;99.90
20735;DHT22;10528;52.124;5.196;2022-08-19T03:46:56;16.90;99.90
20735;DHT22;10528;52.124;5.196;2022-08-19T03:49:29;16.90;99.90
20735;DHT22;10528;52.124;5.196;2022-08-19T03:51:58;16.90;99.90
20735;DHT22;10528;52.124;5.196;2022-08-19T03:54:27;16.90;99.90
20735;DHT22;10528;52.124;5.196;2022-08-19T03:56:56;16.90;99.90
20735;DHT22;10528;52.124;5.196;2022-08-19T03:59:31;16.80;99.90
20735;DHT22;10528;52.124;5.196;2022-08-19T04:02:02;16.80;99.90
20735;DHT22;10528;52.124;5.196;2022-08-19T04:04:35;16.70;99.90
20735;DHT22;10528;52.124;5.196;2022-08-19T04:07:07;16.70;99.90
20735;DHT22;10528;52.124;5.196;2022-08-19T04:09:36;16.70;99.90
20735;DHT22;10528;52.124;5.196;2022-08-19T04:12:04;16.70;99.90
20735;DHT22;10528;52.124;5.196;2022-08-19T04:14:32;16.70;99.90
20735;DHT22;10528;52.124;5.196;2022-08-19T04:17:01;16.70;99.90
20735;DHT22;10528;52.124;5.196;2022-08-19T04:19:30;16.80;99.90
20735;DHT22;10528;52.124;5.196;2022-08-19T04:21:58;16.80;99.90
20735;DHT22;10528;52.124;5.196;2022-08-19T04:24:25;16.70;99.90
20735;DHT22;10528;52.124;5.196;2022-08-19T04:26:52;16.80;99.90
20735;DHT22;10528;52.124;5.196;2022-08-19T04:29:23;16.70;99.90
20735;DHT22;10528;52.124;5.196;2022-08-19T04:31:53;16.70;99.90
20735;DHT22;10528;52.124;5.196;2022-08-19T04:34:24;16.70;99.90
20735;DHT22;10528;52.124;5.196;2022-08-19T04:36:53;16.70;99.90
20735;DHT22;10528;52.124;5.196;2022-08-19T04:39:25;16.70;99.90
20735;DHT22;10528;52.124;5.196;2022-08-19T04:42:16;16.70;99.90
20735;DHT22;10528;52.124;5.196;2022-08-19T04:45:04;16.70;99.90
20735;DHT22;10528;52.124;5.196;2022-08-19T04:47:43;16.80;99.90
20735;DHT22;10528;52.124;5.196;2022-08-19T04:50:24;16.70;99.90
20735;DHT22;10528;52.124;5.196;2022-08-19T04:52:53;16.70;99.90
20735;DHT22;10528;52.124;5.196;2022-08-19T04:55:22;16.70;99.90
20735;DHT22;10528;52.124;5.196;2022-08-19T04:57:51;16.80;99.90
20735;DHT22;10528;52.124;5.196;2022-08-19T05:00:19;16.90;99.90
20735;DHT22;10528;52.124;5.196;2022-08-19T05:02:45;16.90;99.90
20735;DHT22;10528;52.124;5.196;2022-08-19T05:05:12;16.90;99.90
20735;DHT22;10528;52.124;5.196;2022-08-19T05:07:40;16.90;99.90
20735;DHT22;10528;52.124;5.196;2022-08-19T05:10:08;17.00;99.90
20735;DHT22;10528;52.124;5.196;2022-08-19T05:12:35;17.00;99.90
20735;DHT22;10528;52.124;5.196;2022-08-19T05:15:04;17.00;99.90
20735;DHT22;10528;52.124;5.196;2022-08-19T05:17:32;17.10;99.90
20735;DHT22;10528;52.124;5.196;2022-08-19T05:20:06;17.10;99.90
20735;DHT22;10528;52.124;5.196;2022-08-19T05:22:52;17.10;99.90
20735;DHT22;10528;52.124;5.196;2022-08-19T05:25:21;17.20;99.90
20735;DHT22;10528;52.124;5.196;2022-08-19T05:27:48;17.30;99.90
20735;DHT22;10528;52.124;5.196;2022-08-19T05:30:16;17.40;99.90
20735;DHT22;10528;52.124;5.196;2022-08-19T05:32:44;17.30;99.90
20735;DHT22;10528;52.124;5.196;2022-08-19T05:35:11;17.30;99.90
20735;DHT22;10528;52.124;5.196;2022-08-19T05:37:39;17.40;99.90
20735;DHT22;10528;52.124;5.196;2022-08-19T05:40:09;17.50;99.90
20735;DHT22;10528;52.124;5.196;2022-08-19T05:42:37;17.60;99.90
20735;DHT22;10528;52.124;5.196;2022-08-19T05:45:05;17.60;99.90
20735;DHT22;10528;52.124;5.196;2022-08-19T05:47:33;17.80;99.90
20735;DHT22;10528;52.124;5.196;2022-08-19T05:50:08;17.90;99.90
20735;DHT22;10528;52.124;5.196;2022-08-19T05:52:36;17.90;99.90
20735;DHT22;10528;52.124;5.196;2022-08-19T05:55:09;17.90;99.90
20735;DHT22;10528;52.124;5.196;2022-08-19T05:57:36;18.00;99.90
20735;DHT22;10528;52.124;5.196;2022-08-19T06:00:05;18.10;99.90
20735;DHT22;10528;52.124;5.196;2022-08-19T06:02:38;18.30;99.90
20735;DHT22;10528;52.124;5.196;2022-08-19T06:05:07;18.70;99.90
20735;DHT22;10528;52.124;5.196;2022-08-19T06:07:36;19.00;99.90
20735;DHT22;10528;52.124;5.196;2022-08-19T06:10:07;18.90;99.90
20735;DHT22;10528;52.124;5.196;2022-08-19T06:12:36;18.90;99.90
20735;DHT22;10528;52.124;5.196;2022-08-19T06:15:07;19.00;99.90
20735;DHT22;10528;52.124;5.196;2022-08-19T06:17:36;19.10;99.90
20735;DHT22;10528;52.124;5.196;2022-08-19T06:20:06;19.10;99.90
20735;DHT22;10528;52.124;5.196;2022-08-19T06:22:40;19.20;99.90
20735;DHT22;10528;52.124;5.196;2022-08-19T06:25:08;19.70;99.90
20735;DHT22;10528;52.124;5.196;2022-08-19T06:27:36;20.10;99.90
20735;DHT22;10528;52.124;5.196;2022-08-19T06:30:23;20.40;99.90
20735;DHT22;10528;52.124;5.196;2022-08-19T06:32:50;20.50;99.90
20735;DHT22;10528;52.124;5.196;2022-08-19T06:35:18;20.40;99.90
20735;DHT22;10528;52.124;5.196;2022-08-19T06:37:45;20.50;99.90
20735;DHT22;10528;52.124;5.196;2022-08-19T06:40:13;20.50;99.90
20735;DHT22;10528;52.124;5.196;2022-08-19T06:42:40;20.60;99.90
20735;DHT22;10528;52.124;5.196;2022-08-19T06:45:21;20.50;99.90
20735;DHT22;10528;52.124;5.196;2022-08-19T06:47:51;20.40;99.90
20735;DHT22;10528;52.124;5.196;2022-08-19T06:50:25;20.40;99.90
20735;DHT22;10528;52.124;5.196;2022-08-19T06:52:52;20.50;99.90
20735;DHT22;10528;52.124;5.196;2022-08-19T06:55:19;20.80;99.90
20735;DHT22;10528;52.124;5.196;2022-08-19T06:57:46;20.70;99.90
20735;DHT22;10528;52.124;5.196;2022-08-19T07:00:14;20.60;99.90
20735;DHT22;10528;52.124;5.196;2022-08-19T07:02:43;20.40;99.90
20735;DHT22;10528;52.124;5.196;2022-08-19T07:05:18;20.30;99.90
20735;DHT22;10528;52.124;5.196;2022-08-19T07:07:45;20.30;99.90
20735;DHT22;10528;52.124;5.196;2022-08-19T07:10:13;20.40;99.90
20735;DHT22;10528;52.124;5.196;2022-08-19T07:12:40;20.50;99.90
20735;DHT22;10528;52.124;5.196;2022-08-19T07:15:08;20.40;99.90
20735;DHT22;10528;52.124;5.196;2022-08-19T07:17:36;20.40;99.90
20735;DHT22;10528;52.124;5.196;2022-08-19T07:20:08;20.30;99.90
20735;DHT22;10528;52.124;5.196;2022-08-19T07:22:37;20.60;99.90
20735;DHT22;10528;52.124;5.196;2022-08-19T07:25:07;20.70;99.90
20735;DHT22;10528;52.124;5.196;2022-08-19T07:27:36;20.80;99.90
20735;DHT22;10528;52.124;5.196;2022-08-19T07:30:06;21.00;99.90
20735;DHT22;10528;52.124;5.196;2022-08-19T07:32:38;21.00;99.90
20735;DHT22;10528;52.124;5.196;2022-08-19T07:35:06;20.80;99.90
20735;DHT22;10528;52.124;5.196;2022-08-19T07:37:33;21.10;99.90
20735;DHT22;10528;52.124;5.196;2022-08-19T07:40:03;21.20;99.90
20735;DHT22;10528;52.124;5.196;2022-08-19T07:42:32;21.00;99.90
20735;DHT22;10528;52.124;5.196;2022-08-19T07:44:59;21.10;99.90
20735;DHT22;10528;52.124;5.196;2022-08-19T07:47:26;21.00;99.90
20735;DHT22;10528;52.124;5.196;2022-08-19T07:50:15;21.00;99.90
20735;DHT22;10528;52.124;5.196;2022-08-19T07:52:42;21.10;99.90
20735;DHT22;10528;52.124;5.196;2022-08-19T07:55:16;21.10;99.90
20735;DHT22;10528;52.124;5.196;2022-08-19T07:58:05;21.20;99.90
20735;DHT22;10528;52.124;5.196;2022-08-19T08:00:32;21.40;99.90
20735;DHT22;10528;52.124;5.196;2022-08-19T08:03:00;21.50;99.90
20735;DHT22;10528;52.124;5.196;2022-08-19T08:05:27;21.50;99.90
20735;DHT22;10528;52.124;5.196;2022-08-19T08:08:13;21.40;99.90
20735;DHT22;10528;52.124;5.196;2022-08-19T08:11:00;21.60;99.90
20735;DHT22;10528;52.124;5.196;2022-08-19T08:13:27;21.80;99.90
20735;DHT22;10528;52.124;5.196;2022-08-19T08:15:56;21.80;99.90
20735;DHT22;10528;52.124;5.196;2022-08-19T08:18:24;21.80;99.90
20735;DHT22;10528;52.124;5.196;2022-08-19T08:20:57;21.60;99.90
20735;DHT22;10528;52.124;5.196;2022-08-19T08:23:25;21.60;99.90
20735;DHT22;10528;52.124;5.196;2022-08-19T08:25:55;21.80;99.90
20735;DHT22;10528;52.124;5.196;2022-08-19T08:28:24;21.80;99.90
20735;DHT22;10528;52.124;5.196;2022-08-19T08:30:56;21.90;99.90
20735;DHT22;10528;52.124;5.196;2022-08-19T08:33:26;21.80;99.90
20735;DHT22;10528;52.124;5.196;2022-08-19T08:36:07;21.90;99.90
20735;DHT22;10528;52.124;5.196;2022-08-19T08:38:35;21.90;99.90
20735;DHT22;10528;52.124;5.196;2022-08-19T08:44:28;22.30;99.90
20735;DHT22;10528;52.124;5.196;2022-08-19T08:47:09;22.60;99.90
20735;DHT22;10528;52.124;5.196;2022-08-19T08:49:49;22.50;99.90
20735;DHT22;10528;52.124;5.196;2022-08-19T08:52:26;22.70;99.90
20735;DHT22;10528;52.124;5.196;2022-08-19T08:55:04;22.90;99.90
20735;DHT22;10528;52.124;5.196;2022-08-19T09:00:25;22.90;99.90
20735;DHT22;10528;52.124;5.196;2022-08-19T09:02:57;23.00;99.90
20735;DHT22;10528;52.124;5.196;2022-08-19T09:08:25;23.00;99.90
20735;DHT22;10528;52.124;5.196;2022-08-19T09:11:00;23.00;99.90
20735;DHT22;10528;52.124;5.196;2022-08-19T09:14:15;22.90;99.90
20735;DHT22;10528;52.124;5.196;2022-08-19T09:17:14;22.80;99.90
20735;DHT22;10528;52.124;5.196;2022-08-19T09:19:57;22.90;99.90
20735;DHT22;10528;52.124;5.196;2022-08-19T09:22:36;23.00;99.90
20735;DHT22;10528;52.124;5.196;2022-08-19T09:25:06;23.10;99.90
20735;DHT22;10528;52.124;5.196;2022-08-19T09:27:37;23.10;99.90
20735;DHT22;10528;52.124;5.196;2022-08-19T09:30:19;23.20;99.90
20735;DHT22;10528;52.124;5.196;2022-08-19T09:32:48;23.10;99.90
20735;DHT22;10528;52.124;5.196;2022-08-19T09:35:20;23.00;99.90
20735;DHT22;10528;52.124;5.196;2022-08-19T09:37:49;22.90;99.90
20735;DHT22;10528;52.124;5.196;2022-08-19T09:40:23;22.90;99.90
20735;DHT22;10528;52.124;5.196;2022-08-19T09:42:52;23.00;99.90
20735;DHT22;10528;52.124;5.196;2022-08-19T09:45:20;23.10;99.90
20735;DHT22;10528;52.124;5.196;2022-08-19T09:47:50;23.10;99.90
20735;DHT22;10528;52.124;5.196;2022-08-19T09:50:21;23.20;99.90
20735;DHT22;10528;52.124;5.196;2022-08-19T09:52:50;23.20;99.90
20735;DHT22;10528;52.124;5.196;2022-08-19T09:55:24;23.30;99.90
20735;DHT22;10528;52.124;5.196;2022-08-19T09:57:58;23.30;99.90
20735;DHT22;10528;52.124;5.196;2022-08-19T10:00:28;23.40;99.90
20735;DHT22;10528;52.124;5.196;2022-08-19T10:02:57;23.20;99.90
20735;DHT22;10528;52.124;5.196;2022-08-19T10:05:24;23.10;99.90
20735;DHT22;10528;52.124;5.196;2022-08-19T10:08:10;23.20;99.90
20735;DHT22;10528;52.124;5.196;2022-08-19T10:10:41;23.30;99.90
20735;DHT22;10528;52.124;5.196;2022-08-19T10:13:15;23.50;99.90
20735;DHT22;10528;52.124;5.196;2022-08-19T10:15:45;23.70;99.90
20735;DHT22;10528;52.124;5.196;2022-08-19T10:18:15;23.70;99.90
20735;DHT22;10528;52.124;5.196;2022-08-19T10:20:45;23.60;99.90
20735;DHT22;10528;52.124;5.196;2022-08-19T10:23:18;23.60;99.90
20735;DHT22;10528;52.124;5.196;2022-08-19T10:25:46;23.70;99.90
20735;DHT22;10528;52.124;5.196;2022-08-19T10:28:14;23.70;99.90
20735;DHT22;10528;52.124;5.196;2022-08-19T10:30:41;23.60;99.90
20735;DHT22;10528;52.124;5.196;2022-08-19T10:33:09;23.60;99.90
20735;DHT22;10528;52.124;5.196;2022-08-19T10:35:37;23.80;99.90
20735;DHT22;10528;52.124;5.196;2022-08-19T10:38:23;23.80;99.90
20735;DHT22;10528;52.124;5.196;2022-08-19T10:41:05;24.00;99.90
20735;DHT22;10528;52.124;5.196;2022-08-19T10:43:36;24.30;99.90
20735;DHT22;10528;52.124;5.196;2022-08-19T10:46:10;24.30;99.90
20735;DHT22;10528;52.124;5.196;2022-08-19T10:48:43;24.30;99.90
20735;DHT22;10528;52.124;5.196;2022-08-19T10:51:11;24.30;99.90
20735;DHT22;10528;52.124;5.196;2022-08-19T10:53:58;24.30;99.90
20735;DHT22;10528;52.124;5.196;2022-08-19T10:56:27;24.10;99.90
20735;DHT22;10528;52.124;5.196;2022-08-19T10:59:14;24.00;99.90
20735;DHT22;10528;52.124;5.196;2022-08-19T11:01:43;24.00;99.90
20735;DHT22;10528;52.124;5.196;2022-08-19T11:04:12;23.80;99.90
20735;DHT22;10528;52.124;5.196;2022-08-19T11:06:41;24.00;99.90
20735;DHT22;10528;52.124;5.196;2022-08-19T11:09:10;24.30;99.90
20735;DHT22;10528;52.124;5.196;2022-08-19T11:11:38;24.50;99.90
20735;DHT22;10528;52.124;5.196;2022-08-19T11:14:14;24.50;99.90
20735;DHT22;10528;52.124;5.196;2022-08-19T11:16:44;24.50;99.90
20735;DHT22;10528;52.124;5.196;2022-08-19T11:19:12;24.50;99.90
20735;DHT22;10528;52.124;5.196;2022-08-19T11:21:44;24.60;99.90
20735;DHT22;10528;52.124;5.196;2022-08-19T11:24:18;24.60;99.90
20735;DHT22;10528;52.124;5.196;2022-08-19T11:26:50;24.60;99.90
20735;DHT22;10528;52.124;5.196;2022-08-19T11:29:23;24.60;99.90
20735;DHT22;10528;52.124;5.196;2022-08-19T11:31:54;24.60;99.90
20735;DHT22;10528;52.124;5.196;2022-08-19T11:34:24;24.70;99.90
20735;DHT22;10528;52.124;5.196;2022-08-19T11:36:54;24.50;99.90
20735;DHT22;10528;52.124;5.196;2022-08-19T11:39:28;24.40;99.90
20735;DHT22;10528;52.124;5.196;2022-08-19T11:42:00;24.30;99.90
20735;DHT22;10528;52.124;5.196;2022-08-19T11:44:29;24.30;99.90
20735;DHT22;10528;52.124;5.196;2022-08-19T11:46:57;24.20;99.90
20735;DHT22;10528;52.124;5.196;2022-08-19T11:49:34;24.20;99.90
20735;DHT22;10528;52.124;5.196;2022-08-19T11:52:02;24.30;99.90
20735;DHT22;10528;52.124;5.196;2022-08-19T11:54:29;24.30;99.90
20735;DHT22;10528;52.124;5.196;2022-08-19T11:56:57;24.30;99.90
20735;DHT22;10528;52.124;5.196;2022-08-19T11:59:24;24.30;99.90
20735;DHT22;10528;52.124;5.196;2022-08-19T12:01:53;24.40;99.90
20735;DHT22;10528;52.124;5.196;2022-08-19T12:04:20;24.30;99.90
20735;DHT22;10528;52.124;5.196;2022-08-19T12:06:47;24.30;99.90
20735;DHT22;10528;52.124;5.196;2022-08-19T12:09:14;24.20;99.90
20735;DHT22;10528;52.124;5.196;2022-08-19T12:11:41;24.10;99.90
20735;DHT22;10528;52.124;5.196;2022-08-19T12:14:10;23.90;99.90
20735;DHT22;10528;52.124;5.196;2022-08-19T12:16:40;24.00;99.90
20735;DHT22;10528;52.124;5.196;2022-08-19T12:19:16;24.00;99.90
20735;DHT22;10528;52.124;5.196;2022-08-19T12:21:48;24.10;99.90
20735;DHT22;10528;52.124;5.196;2022-08-19T12:24:16;24.10;99.90
20735;DHT22;10528;52.124;5.196;2022-08-19T12:26:49;24.20;99.90
20735;DHT22;10528;52.124;5.196;2022-08-19T12:29:19;24.10;99.90
20735;DHT22;10528;52.124;5.196;2022-08-19T12:31:50;24.30;99.90
20735;DHT22;10528;52.124;5.196;2022-08-19T12:34:17;24.40;99.90
20735;DHT22;10528;52.124;5.196;2022-08-19T12:36:46;24.40;99.90
20735;DHT22;10528;52.124;5.196;2022-08-19T12:39:15;24.40;99.90
20735;DHT22;10528;52.124;5.196;2022-08-19T12:41:42;24.40;99.90
20735;DHT22;10528;52.124;5.196;2022-08-19T12:44:21;24.50;99.90
20735;DHT22;10528;52.124;5.196;2022-08-19T12:46:55;24.50;99.90
20735;DHT22;10528;52.124;5.196;2022-08-19T12:49:23;24.40;99.90
20735;DHT22;10528;52.124;5.196;2022-08-19T12:52:11;24.40;99.90
20735;DHT22;10528;52.124;5.196;2022-08-19T12:54:42;24.30;99.90
20735;DHT22;10528;52.124;5.196;2022-08-19T12:57:10;24.20;99.90
20735;DHT22;10528;52.124;5.196;2022-08-19T12:59:38;23.90;99.90
20735;DHT22;10528;52.124;5.196;2022-08-19T13:02:06;23.80;99.90
20735;DHT22;10528;52.124;5.196;2022-08-19T13:04:34;23.70;99.90
20735;DHT22;10528;52.124;5.196;2022-08-19T13:07:03;23.70;99.90
20735;DHT22;10528;52.124;5.196;2022-08-19T13:09:30;23.60;99.90
20735;DHT22;10528;52.124;5.196;2022-08-19T13:11:57;23.50;99.90
20735;DHT22;10528;52.124;5.196;2022-08-19T13:14:23;23.50;99.90
20735;DHT22;10528;52.124;5.196;2022-08-19T13:16:52;23.60;99.90
20735;DHT22;10528;52.124;5.196;2022-08-19T13:19:19;23.70;99.90
20735;DHT22;10528;52.124;5.196;2022-08-19T13:21:50;23.70;99.90
20735;DHT22;10528;52.124;5.196;2022-08-19T13:24:25;23.70;99.90
20735;DHT22;10528;52.124;5.196;2022-08-19T13:27:00;23.70;99.90
20735;DHT22;10528;52.124;5.196;2022-08-19T13:29:27;23.90;99.90
20735;DHT22;10528;52.124;5.196;2022-08-19T13:32:30;23.90;99.90
20735;DHT22;10528;52.124;5.196;2022-08-19T13:35:16;24.00;99.90
20735;DHT22;10528;52.124;5.196;2022-08-19T13:37:43;24.00;99.90
20735;DHT22;10528;52.124;5.196;2022-08-19T13:40:21;24.00;99.90
20735;DHT22;10528;52.124;5.196;2022-08-19T13:42:53;24.00;99.90
20735;DHT22;10528;52.124;5.196;2022-08-19T13:45:23;24.00;99.90
20735;DHT22;10528;52.124;5.196;2022-08-19T13:47:52;23.90;99.90
20735;DHT22;10528;52.124;5.196;2022-08-19T13:50:30;23.90;99.90
20735;DHT22;10528;52.124;5.196;2022-08-19T13:52:58;23.90;99.90
20735;DHT22;10528;52.124;5.196;2022-08-19T13:55:26;24.00;99.90
20735;DHT22;10528;52.124;5.196;2022-08-19T13:57:56;23.90;99.90
20735;DHT22;10528;52.124;5.196;2022-08-19T14:00:26;24.00;99.90
20735;DHT22;10528;52.124;5.196;2022-08-19T14:02:56;24.10;99.90
20735;DHT22;10528;52.124;5.196;2022-08-19T14:05:25;24.20;99.90
20735;DHT22;10528;52.124;5.196;2022-08-19T14:07:55;24.10;99.90
20735;DHT22;10528;52.124;5.196;2022-08-19T14:10:23;24.10;99.90
20735;DHT22;10528;52.124;5.196;2022-08-19T14:12:56;24.00;99.90
20735;DHT22;10528;52.124;5.196;2022-08-19T14:15:25;24.00;99.90
20735;DHT22;10528;52.124;5.196;2022-08-19T14:17:53;23.90;99.90
20735;DHT22;10528;52.124;5.196;2022-08-19T14:20:21;24.00;99.90
20735;DHT22;10528;52.124;5.196;2022-08-19T14:22:53;24.10;99.90
20735;DHT22;10528;52.124;5.196;2022-08-19T14:25:23;24.10;99.90
20735;DHT22;10528;52.124;5.196;2022-08-19T14:27:52;24.20;99.90
20735;DHT22;10528;52.124;5.196;2022-08-19T14:30:25;24.20;99.90
20735;DHT22;10528;52.124;5.196;2022-08-19T14:32:56;24.00;99.90
20735;DHT22;10528;52.124;5.196;2022-08-19T14:35:25;24.20;99.90
20735;DHT22;10528;52.124;5.196;2022-08-19T14:37:56;24.20;99.90
20735;DHT22;10528;52.124;5.196;2022-08-19T14:40:27;24.20;99.90
20735;DHT22;10528;52.124;5.196;2022-08-19T14:42:58;24.10;99.90
20735;DHT22;10528;52.124;5.196;2022-08-19T14:45:32;24.20;99.90
20735;DHT22;10528;52.124;5.196;2022-08-19T14:48:03;24.10;99.90
20735;DHT22;10528;52.124;5.196;2022-08-19T14:50:31;24.20;99.90
20735;DHT22;10528;52.124;5.196;2022-08-19T14:53:08;24.00;99.90
20735;DHT22;10528;52.124;5.196;2022-08-19T14:55:41;24.10;99.90
20735;DHT22;10528;52.124;5.196;2022-08-19T14:58:09;24.10;99.90
20735;DHT22;10528;52.124;5.196;2022-08-19T15:00:57;24.10;99.90
20735;DHT22;10528;52.124;5.196;2022-08-19T15:03:26;24.20;99.90
20735;DHT22;10528;52.124;5.196;2022-08-19T15:05:55;24.20;99.90
20735;DHT22;10528;52.124;5.196;2022-08-19T15:08:24;24.20;99.90
20735;DHT22;10528;52.124;5.196;2022-08-19T15:10:52;24.10;99.90
20735;DHT22;10528;52.124;5.196;2022-08-19T15:13:19;24.10;99.90
20735;DHT22;10528;52.124;5.196;2022-08-19T15:15:47;24.20;99.90
20735;DHT22;10528;52.124;5.196;2022-08-19T15:18:14;24.30;99.90
20735;DHT22;10528;52.124;5.196;2022-08-19T15:20:41;24.30;99.90
20735;DHT22;10528;52.124;5.196;2022-08-19T15:23:16;24.20;99.90
20735;DHT22;10528;52.124;5.196;2022-08-19T15:25:44;24.30;99.90
20735;DHT22;10528;52.124;5.196;2022-08-19T15:28:11;24.30;99.90
20735;DHT22;10528;52.124;5.196;2022-08-19T15:30:39;24.30;99.90
20735;DHT22;10528;52.124;5.196;2022-08-19T15:33:07;24.20;99.90
20735;DHT22;10528;52.124;5.196;2022-08-19T15:35:34;24.20;99.90
20735;DHT22;10528;52.124;5.196;2022-08-19T15:38:01;24.20;99.90
20735;DHT22;10528;52.124;5.196;2022-08-19T15:40:28;24.20;99.90
20735;DHT22;10528;52.124;5.196;2022-08-19T15:42:55;24.20;99.90
20735;DHT22;10528;52.124;5.196;2022-08-19T15:45:22;24.10;99.90
20735;DHT22;10528;52.124;5.196;2022-08-19T15:47:59;24.00;99.90
20735;DHT22;10528;52.124;5.196;2022-08-19T15:50:28;24.00;99.90
20735;DHT22;10528;52.124;5.196;2022-08-19T15:53:01;24.00;99.90
20735;DHT22;10528;52.124;5.196;2022-08-19T15:55:33;24.00;99.90
20735;DHT22;10528;52.124;5.196;2022-08-19T15:58:13;24.10;99.90
20735;DHT22;10528;52.124;5.196;2022-08-19T16:01:01;24.00;99.90
20735;DHT22;10528;52.124;5.196;2022-08-19T16:03:51;24.00;99.90